Terminal Aerodrome Forecast
Issued by NWS Wilmington, NC

Home | Current Version | Previous Version | Text Only | Print | Product List | Glossary On
Versions: 1 2 3 4 5 6 7 8 9 10 11 12
889
FTUS42 KILM 272325
TAFMYR
TAF
KMYR 272325Z 2800/2824 14004KT P6SM SKC
     FM280900 03005KT P6SM SCT008 SCT020
     FM281200 05007KT P6SM SCT025 BKN120
     FM281500 11010KT P6SM SCT040
      AMD LTD TO CLD VIS AND WIND 2803/2810=

USA.gov is the U.S. government's official web portal to all federal, state and local government web resources and services.